Time;durP1;ratioP1;P1;durP2;ratioP2;P2;SDS_P1;SDS_P2;PMS_P1;PMS_P2;Temp;Humidity;BMP_temperature;BMP_pressure;BME280_temperature;BME280_humidity;BME280_pressure;Samples;Min_cycle;Max_cycle;Signal;HPM_P1;HPM_P2
2023/05/12 00:00:58;;;;;;;20.03;9.30;;;;;;;10.29;58.58;101283.67;123408;1102;104286;-75
2023/05/12 00:03:29;;;;;;;21.13;9.23;;;;;;;10.25;58.39;101287.87;123399;1102;104236;-74
2023/05/12 00:06:03;;;;;;;22.10;10.40;;;;;;;10.23;58.94;101283.37;123332;1102;104242;-74
2023/05/12 00:08:34;;;;;;;23.98;10.35;;;;;;;10.19;58.68;101287.58;123508;1102;104274;-74
2023/05/12 00:11:05;;;;;;;23.97;10.53;;;;;;;10.17;58.74;101290.93;123440;1102;104223;-74
2023/05/12 00:13:37;;;;;;;27.77;11.60;;;;;;;10.14;59.18;101290.77;123554;1102;104276;-76
2023/05/12 00:16:09;;;;;;;27.13;11.00;;;;;;;10.08;59.11;101289.66;123524;1102;104370;-75
2023/05/12 00:18:40;;;;;;;23.33;10.83;;;;;;;10.07;59.08;101284.33;123477;1102;104384;-76
2023/05/12 00:21:11;;;;;;;24.60;10.63;;;;;;;10.07;59.46;101289.58;123400;1102;104405;-75
2023/05/12 00:23:43;;;;;;;24.43;11.20;;;;;;;10.04;58.99;101287.69;123397;1102;104312;-75
2023/05/12 00:26:14;;;;;;;23.55;10.65;;;;;;;10.01;59.65;101294.52;123457;1101;104259;-75
2023/05/12 00:28:47;;;;;;;23.73;10.30;;;;;;;9.97;59.78;101285.60;123477;1102;104318;-75
2023/05/12 00:31:19;;;;;;;25.30;10.87;;;;;;;9.94;59.30;101280.20;123472;1102;104489;-74
2023/05/12 00:33:50;;;;;;;25.13;10.40;;;;;;;9.92;59.32;101289.69;123416;1102;104277;-75
2023/05/12 00:36:21;;;;;;;25.27;10.33;;;;;;;9.88;59.95;101287.75;123528;1102;104799;-75
2023/05/12 00:38:53;;;;;;;21.73;10.03;;;;;;;9.84;59.61;101291.91;123505;1102;104280;-76
2023/05/12 00:41:24;;;;;;;17.77;9.27;;;;;;;9.79;60.22;101284.66;123425;1101;104365;-76
2023/05/12 00:43:55;;;;;;;21.10;8.67;;;;;;;9.76;59.96;101284.50;123379;1102;104355;-75
2023/05/12 00:46:27;;;;;;;17.80;8.55;;;;;;;9.75;59.89;101285.31;123402;1102;104251;-75
2023/05/12 00:48:59;;;;;;;20.10;8.37;;;;;;;9.71;60.42;101285.16;123449;1102;104354;-76
2023/05/12 00:51:31;;;;;;;15.80;7.30;;;;;;;9.67;60.56;101291.05;123390;1101;104235;-75
2023/05/12 00:54:02;;;;;;;17.17;8.53;;;;;;;9.65;60.44;101289.19;123455;1102;104411;-75
2023/05/12 00:56:38;;;;;;;17.90;9.00;;;;;;;9.60;60.77;101282.78;123436;1102;104383;-75
2023/05/12 00:59:10;;;;;;;20.20;10.43;;;;;;;9.57;60.85;101278.30;123471;1101;104229;-74
2023/05/12 01:01:43;;;;;;;;;;;;;;;9.52;60.47;101282.38;123514;1102;104283;-76
2023/05/12 01:04:15;;;;;;;27.25;15.75;;;;;;;9.52;60.58;101285.00;123524;1102;104269;-74
2023/05/12 01:06:54;;;;;;;28.23;16.27;;;;;;;9.47;61.10;101281.25;123279;1102;104331;-74
2023/05/12 01:09:25;;;;;;;24.80;13.90;;;;;;;9.43;60.83;101284.55;123346;1102;104374;-75
2023/05/12 01:11:56;;;;;;;25.33;13.37;;;;;;;9.38;60.90;101286.92;123426;1102;104332;-75
2023/05/12 01:14:27;;;;;;;22.53;11.57;;;;;;;9.34;60.99;101285.84;123415;1102;104264;-75
2023/05/12 01:17:03;;;;;;;21.53;10.83;;;;;;;9.31;61.36;101287.41;123492;1102;104635;-75
2023/05/12 01:19:45;;;;;;;22.70;11.40;;;;;;;9.28;60.83;101287.23;123455;1102;104338;-75
2023/05/12 01:22:17;;;;;;;21.03;10.30;;;;;;;9.27;60.86;101285.43;123444;1102;104277;-75
2023/05/12 01:24:54;;;;;;;20.47;10.57;;;;;;;9.25;61.05;101281.84;123479;1102;104367;-75
2023/05/12 01:27:27;;;;;;;21.97;11.03;;;;;;;9.23;61.13;101299.20;123692;1102;110030;-76
2023/05/12 01:30:00;;;;;;;;;;;;;;;9.15;61.18;101286.58;123555;1102;104283;-76
2023/05/12 01:32:32;;;;;;;21.80;11.33;;;;;;;9.11;61.84;101286.33;123413;1102;104315;-76
2023/05/12 01:35:04;;;;;;;24.87;11.60;;;;;;;9.06;61.44;101291.31;123496;1103;104185;-78
2023/05/12 01:37:37;;;;;;;20.43;11.47;;;;;;;9.09;62.01;101287.98;123451;1102;104661;-77
2023/05/12 01:40:11;;;;;;;22.33;12.17;;;;;;;9.10;61.76;101285.44;123454;1102;104305;-76
2023/05/12 01:42:43;;;;;;;25.17;12.50;;;;;;;9.08;61.55;101296.64;123505;1102;104344;-75
2023/05/12 01:45:16;;;;;;;25.17;11.80;;;;;;;9.00;61.84;101289.25;123446;1102;104297;-75
2023/05/12 01:47:48;;;;;;;21.57;11.33;;;;;;;8.94;62.14;101285.41;123458;1102;104849;-75
2023/05/12 01:50:19;;;;;;;23.05;11.85;;;;;;;8.84;62.10;101291.86;123442;1102;104258;-74
2023/05/12 01:52:51;;;;;;;23.10;11.30;;;;;;;8.71;62.05;101294.59;123450;1102;104287;-75
2023/05/12 01:55:24;;;;;;;21.57;11.50;;;;;;;8.61;62.58;101287.96;123471;1101;104553;-75
2023/05/12 01:57:58;;;;;;;23.75;11.55;;;;;;;8.53;63.01;101289.25;123315;1102;104297;-76
2023/05/12 02:00:30;;;;;;;20.53;10.80;;;;;;;8.48;62.84;101291.61;123401;1102;104376;-74
2023/05/12 02:03:01;;;;;;;21.73;10.60;;;;;;;8.42;62.66;101285.99;123341;1102;104379;-75
2023/05/12 02:05:32;;;;;;;26.60;11.37;;;;;;;8.40;63.37;101287.63;123356;1102;104334;-74
2023/05/12 02:08:04;;;;;;;22.37;11.27;;;;;;;8.35;63.01;101283.83;123390;1102;104313;-75
2023/05/12 02:10:35;;;;;;;21.80;11.20;;;;;;;8.37;62.89;101288.34;123442;1102;104431;-75
2023/05/12 02:13:07;;;;;;;21.93;10.67;;;;;;;8.42;62.96;101292.11;123366;1102;104370;-75
2023/05/12 02:15:38;;;;;;;20.43;10.40;;;;;;;8.45;63.59;101296.66;123352;1102;104287;-79
2023/05/12 02:18:10;;;;;;;24.13;10.80;;;;;;;8.43;63.53;101295.62;123414;1102;104251;-75
2023/05/12 02:20:43;;;;;;;22.27;10.35;;;;;;;8.45;63.68;101301.89;123403;1102;104274;-75
2023/05/12 02:23:14;;;;;;;23.10;10.30;;;;;;;8.45;63.81;101300.17;123450;1102;104519;-77
2023/05/12 02:25:46;;;;;;;19.23;10.10;;;;;;;8.45;63.87;101299.28;123522;1102;104313;-75
2023/05/12 02:28:17;;;;;;;26.67;10.43;;;;;;;8.45;63.63;101297.55;123435;1102;104281;-75
2023/05/12 02:30:51;;;;;;;22.27;10.63;;;;;;;8.40;63.52;101304.21;123484;1102;104676;-75
2023/05/12 02:33:23;;;;;;;18.47;9.90;;;;;;;8.34;64.07;101302.97;123515;1102;104328;-75
2023/05/12 02:35:55;;;;;;;20.97;10.30;;;;;;;8.35;64.35;101315.21;123430;1102;104350;-75
2023/05/12 02:38:26;;;;;;;20.70;9.60;;;;;;;8.36;64.17;101301.33;123364;1102;104245;-76
2023/05/12 02:40:57;;;;;;;19.93;9.87;;;;;;;8.38;64.43;101294.47;123378;1101;104367;-75
2023/05/12 02:43:29;;;;;;;19.57;9.90;;;;;;;8.42;64.15;101301.69;123436;1102;104219;-76
2023/05/12 02:46:00;;;;;;;18.40;9.30;;;;;;;8.43;64.15;101299.19;123446;1102;104408;-75
2023/05/12 02:48:31;;;;;;;19.73;10.03;;;;;;;8.44;64.89;101295.73;123312;1102;104537;-76
2023/05/12 02:51:02;;;;;;;22.23;9.90;;;;;;;8.47;64.70;101297.64;123342;1102;104481;-76
2023/05/12 02:53:34;;;;;;;22.40;10.00;;;;;;;8.48;65.09;101291.61;123502;1102;104236;-75
2023/05/12 02:56:06;;;;;;;24.17;10.90;;;;;;;8.49;64.55;101296.00;123542;1102;104730;-77
2023/05/12 02:58:37;;;;;;;22.80;10.65;;;;;;;8.53;64.91;101308.45;123291;1102;104255;-75
2023/05/12 03:01:08;;;;;;;19.60;9.57;;;;;;;8.53;65.36;101307.56;123216;1102;104459;-76
2023/05/12 03:03:40;;;;;;;19.57;9.87;;;;;;;8.53;65.46;101308.45;123314;1102;104316;-76
2023/05/12 03:06:11;;;;;;;21.93;10.30;;;;;;;8.55;64.94;101308.55;123344;1102;104335;-76
2023/05/12 03:08:43;;;;;;;24.37;10.63;;;;;;;8.56;65.63;101303.40;123586;1102;104229;-76
2023/05/12 03:11:14;;;;;;;20.17;9.63;;;;;;;8.57;65.57;101307.83;123413;1102;104249;-76
2023/05/12 03:13:46;;;;;;;21.00;9.77;;;;;;;8.57;65.84;101313.06;123396;1102;104364;-76
2023/05/12 03:16:17;;;;;;;20.57;9.87;;;;;;;8.61;65.89;101312.39;123393;1102;104379;-76
2023/05/12 03:18:49;;;;;;;22.40;10.20;;;;;;;8.64;65.63;101316.91;123462;1102;104229;-75
2023/05/12 03:21:20;;;;;;;18.50;9.55;;;;;;;8.71;65.61;101305.06;123320;1102;104431;-76
2023/05/12 03:23:51;;;;;;;20.43;10.00;;;;;;;8.76;65.53;101312.38;123675;1102;104351;-75
2023/05/12 03:26:22;;;;;;;21.15;9.85;;;;;;;8.80;65.84;101318.66;123506;1101;104464;-76
2023/05/12 03:28:54;;;;;;;21.17;9.73;;;;;;;8.87;66.14;101318.20;123496;1102;104306;-76
2023/05/12 03:31:25;;;;;;;26.60;10.40;;;;;;;8.95;66.30;101324.76;123504;1102;104344;-76
2023/05/12 03:33:57;;;;;;;21.65;9.60;;;;;;;8.99;66.32;101326.73;123561;1102;104335;-76
2023/05/12 03:36:28;;;;;;;17.33;8.70;;;;;;;8.97;65.79;101330.97;123691;1102;104289;-76
2023/05/12 03:39:01;;;;;;;20.73;9.93;;;;;;;8.96;66.12;101321.33;123397;1102;104607;-75
2023/05/12 03:41:33;;;;;;;22.57;10.10;;;;;;;8.94;66.20;101324.67;123680;1102;104663;-76
2023/05/12 03:44:04;;;;;;;22.00;9.20;;;;;;;8.93;66.87;101334.25;123473;1102;104223;-76
2023/05/12 03:46:36;;;;;;;19.20;9.07;;;;;;;8.92;66.79;101327.20;123493;1102;104258;-77
2023/05/12 03:49:08;;;;;;;23.23;10.03;;;;;;;8.92;66.38;101329.82;123665;1102;104367;-77
2023/05/12 03:51:40;;;;;;;20.50;9.93;;;;;;;8.94;66.56;101330.83;123947;1102;104306;-79
2023/05/12 03:54:11;;;;;;;22.63;10.67;;;;;;;9.00;66.74;101331.14;123652;1102;104425;-78
2023/05/12 03:56:42;;;;;;;17.47;9.37;;;;;;;9.07;66.82;101335.02;123628;1102;104355;-77
2023/05/12 03:59:13;;;;;;;22.23;10.17;;;;;;;9.16;66.82;101329.36;123734;1102;104290;-78
2023/05/12 04:01:44;;;;;;;19.67;9.73;;;;;;;9.25;66.67;101335.11;123785;1102;104328;-76
2023/05/12 04:04:19;;;;;;;20.27;9.37;;;;;;;9.32;66.81;101328.50;123926;1102;104179;-78
2023/05/12 04:06:51;;;;;;;20.33;9.07;;;;;;;9.41;67.24;101335.94;123642;1102;104430;-76
2023/05/12 04:09:23;;;;;;;22.07;9.10;;;;;;;9.44;67.26;101334.41;123407;1102;104335;-76
2023/05/12 04:11:54;;;;;;;20.03;9.83;;;;;;;9.48;67.12;101332.84;123496;1102;104316;-76
2023/05/12 04:14:26;;;;;;;19.10;9.40;;;;;;;9.52;67.42;101334.78;123564;1102;104261;-74
2023/05/12 04:16:58;;;;;;;18.67;9.13;;;;;;;9.58;67.83;101339.46;123436;1101;104338;-76
2023/05/12 04:19:29;;;;;;;18.60;8.83;;;;;;;9.61;67.90;101343.13;123559;1102;104440;-75
2023/05/12 04:22:00;;;;;;;18.77;8.57;;;;;;;9.65;67.90;101344.22;123499;1102;104281;-75
2023/05/12 04:24:32;;;;;;;19.73;9.27;;;;;;;9.67;68.15;101327.73;123670;1102;104248;-77
2023/05/12 04:27:03;;;;;;;20.17;9.53;;;;;;;9.73;67.33;101337.65;123730;1102;104765;-77
2023/05/12 04:29:34;;;;;;;20.50;10.03;;;;;;;9.82;68.15;101347.73;123742;1102;104664;-78
2023/05/12 04:32:06;;;;;;;17.50;9.00;;;;;;;9.87;67.59;101346.23;123838;1102;104424;-77
2023/05/12 04:34:38;;;;;;;19.20;9.30;;;;;;;9.90;68.15;101344.66;124527;1102;102022;-78
2023/05/12 04:37:10;;;;;;;22.30;9.63;;;;;;;9.97;67.95;101347.60;123998;1102;104290;-77
2023/05/12 04:39:41;;;;;;;19.97;9.33;;;;;;;10.05;67.94;101351.52;124042;1102;104219;-77
2023/05/12 04:42:12;;;;;;;22.70;9.90;;;;;;;10.14;67.77;101349.36;123818;1102;104354;-78
2023/05/12 04:44:45;;;;;;;21.10;9.90;;;;;;;10.23;67.98;101354.19;124156;1102;104300;-77
2023/05/12 04:47:16;;;;;;;20.55;9.00;;;;;;;10.32;67.73;101357.28;123957;1102;104254;-77
2023/05/12 04:49:47;;;;;;;19.63;9.10;;;;;;;10.40;67.93;101355.08;123790;1102;104213;-77
2023/05/12 04:52:20;;;;;;;20.00;9.50;;;;;;;10.50;67.94;101345.92;123930;1102;102239;-76
2023/05/12 04:54:51;;;;;;;18.83;9.03;;;;;;;10.58;67.92;101349.82;124013;1102;104245;-77
2023/05/12 04:57:23;;;;;;;20.57;9.37;;;;;;;10.69;68.22;101347.72;123952;1102;104383;-77
2023/05/12 04:59:57;;;;;;;20.70;9.47;;;;;;;10.78;67.68;101346.47;123864;1102;104255;-76
2023/05/12 05:02:36;;;;;;;19.98;10.08;;;;;;;10.90;68.34;101347.88;123845;1102;104281;-76
2023/05/12 05:05:09;;;;;;;19.53;9.67;;;;;;;10.97;67.90;101344.73;123641;1102;104262;-77
2023/05/12 05:07:40;;;;;;;22.60;9.93;;;;;;;11.05;67.81;101339.84;123708;1102;104304;-78
2023/05/12 05:10:12;;;;;;;21.77;10.70;;;;;;;11.14;67.77;101348.12;123767;1102;105592;-78
2023/05/12 05:12:47;;;;;;;16.97;8.80;;;;;;;11.24;67.93;101344.22;124447;1102;102630;-76
2023/05/12 05:15:18;;;;;;;19.67;9.60;;;;;;;11.37;67.51;101343.94;124156;1102;104322;-79
2023/05/12 05:17:50;;;;;;;19.40;9.97;;;;;;;11.48;67.71;101344.42;124514;1102;104229;-78
2023/05/12 05:20:21;;;;;;;20.77;9.93;;;;;;;11.56;67.46;101353.58;123982;1102;104412;-77
2023/05/12 05:22:53;;;;;;;20.60;10.23;;;;;;;11.64;67.62;101352.19;124369;1102;104655;-78
2023/05/12 05:25:25;;;;;;;20.10;9.70;;;;;;;11.77;67.56;101343.11;124389;1102;102506;-78
2023/05/12 05:27:57;;;;;;;20.70;10.50;;;;;;;11.87;67.42;101352.30;124255;1102;104200;-80
2023/05/12 05:30:29;;;;;;;23.20;9.93;;;;;;;11.96;67.24;101352.73;124736;1102;104226;-79
2023/05/12 05:33:12;;;;;;;20.33;9.97;;;;;;;12.07;66.70;101358.47;124723;1101;102678;-78
2023/05/12 05:35:47;;;;;;;20.20;9.77;;;;;;;12.19;67.07;101355.47;124369;1102;104354;-78
2023/05/12 05:38:19;;;;;;;27.17;10.33;;;;;;;12.31;67.12;101357.70;124349;1102;104205;-76
2023/05/12 05:40:50;;;;;;;21.77;10.00;;;;;;;12.44;67.17;101354.77;124782;1102;103806;-77
2023/05/12 05:43:21;;;;;;;20.00;9.23;;;;;;;12.57;66.81;101349.19;124717;1102;104175;-79
2023/05/12 05:45:56;;;;;;;21.60;10.07;;;;;;;12.71;66.69;101352.36;124764;1102;104268;-76
2023/05/12 05:48:31;;;;;;;23.90;9.30;;;;;;;12.82;66.63;101358.06;125877;1102;102296;-78
2023/05/12 05:51:03;;;;;;;21.97;9.30;;;;;;;12.92;66.22;101354.97;125961;1102;102058;-80
2023/05/12 05:53:37;;;;;;;22.43;8.93;;;;;;;13.03;65.84;101344.86;126477;1099;103190;-81
2023/05/12 05:56:10;;;;;;;17.07;8.53;;;;;;;13.14;65.97;101347.91;126175;1099;102798;-81
2023/05/12 05:58:42;;;;;;;18.65;8.80;;;;;;;13.27;65.71;101346.64;126562;1099;102159;-78
2023/05/12 06:01:14;;;;;;;18.60;9.27;;;;;;;13.40;65.46;101355.94;125762;1099;104255;-82
2023/05/12 06:03:46;;;;;;;18.93;8.03;;;;;;;13.54;65.39;101343.27;124812;1099;104364;-80
2023/05/12 06:06:20;;;;;;;18.57;8.83;;;;;;;13.68;66.09;101343.78;125627;1098;104273;-82
2023/05/12 06:08:50;;;;;;;;;;;;;;;13.80;64.36;101345.11;125062;1099;102173;-83
2023/05/12 06:11:21;;;;;;;17.40;8.10;;;;;;;13.92;65.25;101349.06;125541;1099;104261;-86
2023/05/12 06:13:57;;;;;;;20.87;9.07;;;;;;;14.05;64.49;101345.09;125433;1099;104162;-79
2023/05/12 06:16:32;;;;;;;18.77;8.28;;;;;;;14.15;64.89;101345.47;125422;1099;104248;-80
2023/05/12 06:19:06;;;;;;;16.17;8.57;;;;;;;14.24;64.97;101352.80;125144;1099;102199;-81
2023/05/12 06:21:41;;;;;;;17.27;8.33;;;;;;;14.35;63.58;101353.16;125865;1099;104226;-80
2023/05/12 06:24:16;;;;;;;19.97;8.13;;;;;;;14.42;63.99;101344.61;126430;1098;102882;-81
2023/05/12 06:26:52;;;;;;;21.60;8.47;;;;;;;14.57;64.13;101338.95;126091;1099;104166;-80
2023/05/12 06:29:25;;;;;;;22.57;8.90;;;;;;;14.72;64.11;101344.77;125933;1099;103129;-79
2023/05/12 06:32:00;;;;;;;20.43;8.73;;;;;;;14.84;64.00;101340.72;125892;1099;104249;-83
2023/05/12 06:35:03;;;;;;;15.63;7.30;;;;;;;14.93;63.83;101333.08;126210;1099;102727;-83
2023/05/12 06:37:38;;;;;;;20.97;8.23;;;;;;;15.13;63.37;101332.78;125573;1099;104334;-80
2023/05/12 06:40:15;;;;;;;17.90;7.43;;;;;;;15.28;63.92;101333.24;125393;1099;103516;-79
2023/05/12 06:42:47;;;;;;;14.90;6.67;;;;;;;15.41;63.11;101338.05;125701;1098;104248;-81
2023/05/12 06:45:24;;;;;;;17.73;7.43;;;;;;;15.56;62.53;101334.05;125048;1099;104331;-78
2023/05/12 06:47:56;;;;;;;14.40;5.57;;;;;;;15.68;62.15;101333.52;125400;1099;103458;-81
2023/05/12 06:50:30;;;;;;;13.47;5.77;;;;;;;15.84;61.09;101326.92;125271;1099;102334;-79
2023/05/12 06:53:04;;;;;;;15.13;5.60;;;;;;;16.02;61.24;101339.74;125209;1098;104220;-75
2023/05/12 06:55:39;;;;;;;10.37;5.30;;;;;;;16.16;61.46;101333.97;125084;1099;104278;-82
2023/05/12 06:58:13;;;;;;;11.83;4.70;;;;;;;16.27;57.82;101349.26;125370;1099;104172;-78
2023/05/12 07:00:45;;;;;;;8.10;4.07;;;;;;;16.31;58.33;101345.81;125524;1098;104169;-77
2023/05/12 07:03:17;;;;;;;10.63;4.30;;;;;;;16.46;57.05;101340.91;125708;1099;104251;-80
2023/05/12 07:05:51;;;;;;;9.93;4.20;;;;;;;16.57;56.55;101340.28;125755;1099;104341;-81
2023/05/12 07:08:23;;;;;;;10.77;4.87;;;;;;;16.79;56.71;101339.92;124674;1099;102621;-77
2023/05/12 07:10:56;;;;;;;9.47;4.47;;;;;;;16.93;56.59;101329.68;125635;1098;104191;-87
2023/05/12 07:13:30;;;;;;;9.90;4.45;;;;;;;17.09;56.54;101341.52;125168;1099;104270;-77
2023/05/12 07:16:04;;;;;;;8.60;4.13;;;;;;;17.37;56.04;101328.86;125049;1099;104245;-74
2023/05/12 07:18:37;;;;;;;7.97;3.70;;;;;;;17.55;55.01;101331.02;124994;1099;104699;-77
2023/05/12 07:21:09;;;;;;;8.57;4.00;;;;;;;17.64;53.92;101331.20;125017;1099;104171;-77
2023/05/12 07:23:41;;;;;;;6.90;3.60;;;;;;;17.73;53.18;101330.47;124809;1099;104242;-78
2023/05/12 07:26:13;;;;;;;6.37;3.60;;;;;;;17.91;52.51;101324.66;125122;1099;104242;-78
2023/05/12 07:28:44;;;;;;;5.60;3.10;;;;;;;18.09;51.50;101326.74;125136;1099;102728;-80
2023/05/12 07:31:17;;;;;;;9.37;3.20;;;;;;;18.27;51.19;101323.53;125385;1099;103505;-81
2023/05/12 07:33:51;;;;;;;8.70;3.17;;;;;;;18.46;51.18;101322.06;125392;1099;104351;-81
2023/05/12 07:36:27;;;;;;;6.25;3.30;;;;;;;18.57;47.38;101325.78;125096;1099;104256;-81
2023/05/12 07:39:01;;;;;;;10.43;3.30;;;;;;;18.71;48.44;101325.13;125052;1099;104238;-77
2023/05/12 07:41:32;;;;;;;3.70;2.70;;;;;;;18.90;48.79;101319.26;125341;1099;103476;-82
2023/05/12 07:44:03;;;;;;;7.03;3.17;;;;;;;19.01;47.66;101322.95;125137;1099;104246;-78
2023/05/12 07:46:35;;;;;;;9.47;3.30;;;;;;;19.23;48.19;101315.27;125235;1099;104243;-83
2023/05/12 07:49:09;;;;;;;10.93;3.17;;;;;;;19.51;47.86;101308.52;125332;1099;103445;-78
2023/05/12 07:51:46;;;;;;;5.13;3.23;;;;;;;19.74;46.81;101308.78;125270;1099;104162;-77
2023/05/12 07:54:20;;;;;;;4.97;2.80;;;;;;;19.96;47.17;101308.13;124759;1099;103068;-81
2023/05/12 07:56:52;;;;;;;6.73;3.50;;;;;;;20.03;45.25;101304.66;125191;1098;104329;-78
2023/05/12 07:59:25;;;;;;;4.20;2.90;;;;;;;19.94;45.09;101316.10;125064;1099;104217;-81
2023/05/12 08:02:00;;;;;;;4.37;2.62;;;;;;;19.80;42.78;101310.63;125101;1099;104373;-79
2023/05/12 08:04:31;;;;;;;7.30;2.80;;;;;;;19.82;42.60;101329.28;124872;1099;104249;-83
2023/05/12 08:07:09;;;;;;;5.30;2.60;;;;;;;19.85;42.43;101314.26;125295;1099;104158;-82
2023/05/12 08:09:57;;;;;;;3.43;2.33;;;;;;;19.84;39.66;101314.23;125389;1099;104274;-81
2023/05/12 08:12:31;;;;;;;5.17;2.70;;;;;;;19.89;40.67;101312.51;125257;1099;104242;-80
2023/05/12 08:15:03;;;;;;;4.90;2.57;;;;;;;19.89;40.50;101316.05;124882;1099;104181;-79
2023/05/12 08:17:41;;;;;;;5.50;2.60;;;;;;;19.70;38.98;101306.95;125107;1099;104204;-83
2023/05/12 08:20:14;;;;;;;9.43;2.70;;;;;;;19.62;38.37;101307.73;127023;1097;102913;-78
2023/05/12 08:22:49;;;;;;;6.30;2.70;;;;;;;19.64;38.62;101317.53;127037;1098;101880;-82
2023/05/12 08:25:22;;;;;;;5.70;2.47;;;;;;;19.60;38.83;101312.15;126415;1099;102556;-79
2023/05/12 08:27:56;;;;;;;5.90;2.60;;;;;;;19.49;37.62;101314.69;124963;1098;104204;-80
2023/05/12 08:30:32;;;;;;;5.23;2.63;;;;;;;19.46;37.68;101309.33;125193;1099;102785;-78
2023/05/12 08:33:04;;;;;;;;;;;;;;;19.57;33.60;101308.59;125421;1099;104194;-79
2023/05/12 08:35:37;;;;;;;7.73;2.70;;;;;;;19.67;37.88;101314.91;125636;1099;104159;-83
2023/05/12 08:38:08;;;;;;;4.47;2.70;;;;;;;19.75;37.38;101315.88;125378;1099;104239;-80
2023/05/12 08:40:55;;;;;;;7.10;2.80;;;;;;;19.69;34.40;101304.27;125036;1098;104243;-80
2023/05/12 08:43:38;;;;;;;4.47;2.53;;;;;;;19.56;34.35;101319.22;125411;1099;102337;-77
2023/05/12 08:46:11;;;;;;;7.53;2.80;;;;;;;19.55;34.88;101320.08;125020;1099;118741;-79
2023/05/12 08:48:45;;;;;;;6.53;2.80;;;;;;;19.63;35.71;101320.17;125109;1097;104271;-78
2023/05/12 08:51:18;;;;;;;6.43;2.63;;;;;;;19.69;35.18;101313.14;124606;1099;103385;-75
2023/05/12 08:53:53;;;;;;;6.40;2.70;;;;;;;19.82;35.28;101316.89;124669;1099;102583;-75
2023/05/12 08:56:26;;;;;;;6.77;2.80;;;;;;;19.82;34.01;101307.98;124895;1099;104258;-78
2023/05/12 08:59:04;;;;;;;6.40;2.63;;;;;;;19.88;33.58;101306.30;125052;1099;105024;-80
2023/05/12 09:01:43;;;;;;;6.53;2.80;;;;;;;20.01;34.76;101306.42;125065;1099;101932;-80
2023/05/12 09:04:15;;;;;;;5.70;2.90;;;;;;;20.07;33.94;101302.03;125217;1099;103195;-76
2023/05/12 09:06:49;;;;;;;6.60;2.87;;;;;;;20.19;34.26;101300.36;125235;1098;102440;-80
2023/05/12 09:09:28;;;;;;;7.70;2.57;;;;;;;20.24;32.71;101303.94;125298;1099;102198;-83
2023/05/12 09:12:02;;;;;;;3.93;2.70;;;;;;;20.35;33.33;101294.28;125549;1098;104162;-80
2023/05/12 09:14:45;;;;;;;4.57;2.90;;;;;;;20.45;34.06;101282.80;124991;1098;104229;-79
2023/05/12 09:17:43;;;;;;;;;;;;;;;;;;;;;
2023/05/12 09:20:31;;;;;;;6.83;2.90;;;;;;;20.80;34.26;101281.28;124920;1099;102562;-77
2023/05/12 09:23:18;;;;;;;5.30;2.50;;;;;;;21.09;33.10;101268.09;125440;1099;104232;-84
2023/05/12 09:26:02;;;;;;;6.63;3.00;;;;;;;21.33;32.24;101280.67;125691;1099;103528;-82
2023/05/12 09:28:41;;;;;;;5.27;2.60;;;;;;;21.52;32.53;101268.30;125787;1099;102226;-84
2023/05/12 09:31:29;;;;;;;5.00;2.67;;;;;;;21.67;31.56;101277.23;126406;1099;104184;-83
2023/05/12 09:34:11;;;;;;;9.37;2.83;;;;;;;21.89;31.40;101262.12;126222;1099;104370;-80
2023/05/12 09:37:03;;;;;;;4.63;2.63;;;;;;;21.94;31.43;101256.78;125332;1099;101981;-84
2023/05/12 09:39:36;;;;;;;5.67;2.80;;;;;;;21.89;32.15;101265.70;125550;1099;104249;-78
2023/05/12 09:42:15;;;;;;;5.83;2.50;;;;;;;21.85;31.02;101261.23;125492;1099;104226;-83
2023/05/12 09:44:48;;;;;;;6.70;2.83;;;;;;;21.99;31.23;101268.38;125607;1100;104300;-81
2023/05/12 09:47:41;;;;;;;6.33;2.67;;;;;;;21.97;30.59;101256.78;124643;1099;104255;-79
2023/05/12 09:50:21;;;;;;;4.40;2.67;;;;;;;22.07;31.17;101255.91;125207;1099;104240;-81
2023/05/12 09:52:55;;;;;;;3.73;2.40;;;;;;;22.16;28.90;101255.00;125156;1099;104223;-79
2023/05/12 09:55:41;;;;;;;6.03;2.60;;;;;;;22.15;28.81;101251.45;125055;1099;103542;-80
2023/05/12 09:58:20;;;;;;;5.87;2.60;;;;;;;22.11;29.59;101254.12;126201;1099;104245;-79
2023/05/12 10:01:03;;;;;;;4.60;2.90;;;;;;;21.92;28.99;101256.78;125313;1099;104239;-84
2023/05/12 10:03:41;;;;;;;4.80;2.98;;;;;;;22.03;28.97;101254.11;125296;1099;102953;-78
2023/05/12 10:06:24;;;;;;;5.77;2.60;;;;;;;22.06;28.78;101247.02;125253;1099;104352;-80
2023/05/12 10:09:14;;;;;;;3.43;2.60;;;;;;;21.97;27.76;101243.42;125237;1099;103047;-76
2023/05/12 10:11:48;;;;;;;4.25;2.55;;;;;;;21.81;28.89;101240.73;125314;1099;104196;-76
2023/05/12 10:14:25;;;;;;;4.87;2.60;;;;;;;21.74;27.92;101246.98;125543;1099;103235;-77
2023/05/12 10:16:59;;;;;;;8.37;2.57;;;;;;;21.79;28.30;101237.19;125305;1099;104255;-80
2023/05/12 10:19:30;;;;;;;;;;;;;;;21.90;27.15;101224.72;125439;1099;118153;-78
2023/05/12 10:22:04;;;;;;;3.07;2.57;;;;;;;22.18;27.24;101230.06;125360;1099;104082;-79
2023/05/12 10:24:37;;;;;;;4.67;2.40;;;;;;;22.13;27.71;101222.92;125521;1099;102543;-80
2023/05/12 10:27:08;;;;;;;;;;;;;;;22.06;23.79;101227.39;125421;1099;103381;-77
2023/05/12 10:29:42;;;;;;;6.33;2.70;;;;;;;22.26;26.92;101227.38;125267;1099;102642;-76
2023/05/12 10:32:15;;;;;;;4.27;2.30;;;;;;;22.34;25.89;101220.27;125248;1099;102666;-75
2023/05/12 10:34:47;;;;;;;6.93;3.00;;;;;;;22.53;26.86;101229.17;125015;1099;103195;-75
2023/05/12 10:37:26;;;;;;;8.30;3.37;;;;;;;22.80;27.23;101220.17;125030;1099;104253;-78
2023/05/12 10:40:03;;;;;;;6.53;2.63;;;;;;;22.89;26.74;101218.34;124925;1098;109383;-80
2023/05/12 10:42:51;;;;;;;5.70;2.30;;;;;;;22.77;26.74;101216.63;124901;1099;104267;-79
2023/05/12 10:45:42;;;;;;;7.10;3.00;;;;;;;22.88;26.68;101219.27;124958;1099;104159;-80
2023/05/12 10:48:33;;;;;;;4.53;2.80;;;;;;;22.82;26.62;101228.19;125735;1099;104156;-81
2023/05/12 10:51:21;;;;;;;3.00;2.40;;;;;;;22.83;26.48;101213.92;125209;1099;103553;-80
2023/05/12 10:54:03;;;;;;;4.75;2.55;;;;;;;22.95;26.18;101219.23;125134;1099;104245;-77
2023/05/12 10:56:47;;;;;;;4.85;2.50;;;;;;;22.79;25.81;101209.47;125332;1099;103057;-78
2023/05/12 10:59:22;;;;;;;5.07;2.60;;;;;;;22.96;26.15;101209.41;125386;1099;104310;-77
2023/05/12 11:02:02;;;;;;;8.27;2.70;;;;;;;23.03;25.64;101207.59;125348;1099;104079;-76
2023/05/12 11:04:51;;;;;;;5.50;2.63;;;;;;;22.98;24.91;101213.88;125442;1098;102581;-78
2023/05/12 11:07:51;;;;;;;;;;;;;;;;;;;;;
2023/05/12 11:10:32;;;;;;;5.43;2.30;;;;;;;23.40;25.38;101200.27;126069;1098;102107;-78
2023/05/12 11:13:30;;;;;;;4.80;2.57;;;;;;;23.48;25.04;101205.58;125586;1099;104295;-80
2023/05/12 11:16:13;;;;;;;5.40;2.37;;;;;;;23.20;24.16;101196.83;124903;1099;104381;-77
2023/05/12 11:18:47;;;;;;;3.43;2.50;;;;;;;23.02;23.79;101197.80;125264;1099;103026;-77
2023/05/12 11:21:24;;;;;;;3.73;2.83;;;;;;;23.04;24.51;101198.67;125240;1099;104645;-79
2023/05/12 11:24:01;;;;;;;4.30;2.63;;;;;;;23.22;23.50;101203.97;125327;1099;104342;-78
2023/05/12 11:26:34;;;;;;;4.17;2.60;;;;;;;23.37;24.33;101204.77;125074;1100;104239;-80
2023/05/12 11:29:06;;;;;;;5.42;2.50;;;;;;;23.46;24.26;101196.68;126151;1099;104121;-79
2023/05/12 11:31:39;;;;;;;3.10;2.20;;;;;;;23.53;23.89;101193.07;125079;1099;104262;-77
2023/05/12 11:34:11;;;;;;;2.83;2.50;;;;;;;23.63;23.14;101196.56;126976;1098;101906;-76
2023/05/12 11:36:47;;;;;;;5.63;2.50;;;;;;;23.61;23.45;101196.58;126935;1098;102703;-78
2023/05/12 11:39:23;;;;;;;5.40;2.27;;;;;;;23.63;23.36;101185.85;126927;1098;102677;-78
2023/05/12 11:42:08;;;;;;;3.83;2.53;;;;;;;23.68;23.64;101194.73;124969;1099;104268;-77